^^
Saratoga-Weather Station Historical Data
Daily Summary for April 14, 2021 Units:  Both    English   Metric
Daily Weekly Monthly Yearly Custom
  High: Low: Average:
Temperature: 85.6 °F /  29.8 °C 58.8 °F /  14.9 °C 72 °F /  22.2 °C
Dew Point: 67.6 °F /  19.8 °C 56.5 °F /  13.6 °C 62.4 °F /  16.9 °C
Humidity: 96% 51% 74%
Wind Speed: 8.9mph /  14.3km/h - 1.2mph /  2km/h
Wind Gust: 11mph /  17.7km/h - -
Wind- - SW
Pressure: 30.2 in /  1021.3 hPa 30 in /  1016.6 hPa -
Precipitation: 0 in /  0.0 mm    
Historical Graphs
 
 
Tabular Data for April 14, 2021
Time Temperature Dew Point Pressure Wind Wind Speed Wind Gust Humidity Rainfall Rate (Hourly) solar
00:01 65.1 °F /  18.4 °C 60.4 °F /  15.8 °C 30.2in /  1021.0hPa Calm     85% 0in /  0.0mm 0 W/m2
00:06 64.9 °F /  18.3 °C 60.3 °F /  15.7 °C 30.2in /  1021.0hPa Calm     85% 0in /  0.0mm 0 W/m2
00:11 64.9 °F /  18.3 °C 60.6 °F /  15.9 °C 30.2in /  1021.0hPa Calm     86% 0in /  0.0mm 0 W/m2
00:16 64.8 °F /  18.2 °C 60.4 °F /  15.8 °C 30.2in /  1021.0hPa Calm     86% 0in /  0.0mm 0 W/m2
00:21 64.6 °F /  18.1 °C 60.3 °F /  15.7 °C 30.2in /  1021.0hPa Calm     86% 0in /  0.0mm 0 W/m2
00:26 64.6 °F /  18.1 °C 60.6 °F /  15.9 °C 30.2in /  1021.0hPa Calm     87% 0in /  0.0mm 0 W/m2
00:31 64.2 °F /  17.9 °C 60.3 °F /  15.7 °C 30.2in /  1021.0hPa Calm     87% 0in /  0.0mm 0 W/m2
00:36 64 °F /  17.8 °C 60.1 °F /  15.6 °C 30.2in /  1021.0hPa Calm     87% 0in /  0.0mm 0 W/m2
00:41 64 °F /  17.8 °C 60.1 °F /  15.6 °C 30.2in /  1021.0hPa Calm     87% 0in /  0.0mm 0 W/m2
00:46 63.9 °F /  17.7 °C 59.9 °F /  15.5 °C 30.2in /  1021.0hPa Calm     87% 0in /  0.0mm 0 W/m2
00:51 63.7 °F /  17.6 °C 60.1 °F /  15.6 °C 30.2in /  1021.0hPa Calm     88% 0in /  0.0mm 0 W/m2
00:56 63.7 °F /  17.6 °C 60.1 °F /  15.6 °C 30.2in /  1021.0hPa Calm     88% 0in /  0.0mm 0 W/m2
01:01 63.3 °F /  17.4 °C 59.7 °F /  15.4 °C 30.2in /  1021.0hPa Calm     88% 0in /  0.0mm 0 W/m2
01:06 63.3 °F /  17.4 °C 60.1 °F /  15.6 °C 30.2in /  1021.0hPa Calm     89% 0in /  0.0mm 0 W/m2
01:11 63.1 °F /  17.3 °C 59.9 °F /  15.5 °C 30.2in /  1021.0hPa Calm     89% 0in /  0.0mm 0 W/m2
01:16 63.1 °F /  17.3 °C 59.9 °F /  15.5 °C 30.2in /  1021.0hPa Calm     89% 0in /  0.0mm 0 W/m2
01:21 63 °F /  17.2 °C 59.7 °F /  15.4 °C 30.2in /  1021.0hPa Calm     89% 0in /  0.0mm 0 W/m2
01:26 63 °F /  17.2 °C 59.7 °F /  15.4 °C 30.2in /  1021.0hPa Calm     89% 0in /  0.0mm 0 W/m2
01:31 62.8 °F /  17.1 °C 59.7 °F /  15.4 °C 30.2in /  1021.0hPa Calm     90% 0in /  0.0mm 0 W/m2
01:36 62.8 °F /  17.1 °C 59.7 °F /  15.4 °C 30.2in /  1021.3hPa Calm     90% 0in /  0.0mm 0 W/m2
01:41 62.8 °F /  17.1 °C 59.7 °F /  15.4 °C 30.2in /  1021.3hPa Calm     90% 0in /  0.0mm 0 W/m2
01:46 62.8 °F /  17.1 °C 59.7 °F /  15.4 °C 30.2in /  1021.3hPa Calm     90% 0in /  0.0mm 0 W/m2
01:51 62.6 °F /  17 °C 59.5 °F /  15.3 °C 30.2in /  1021.3hPa Calm     90% 0in /  0.0mm 0 W/m2
01:56 62.6 °F /  17 °C 59.5 °F /  15.3 °C 30.2in /  1021.3hPa Calm     90% 0in /  0.0mm 0 W/m2
02:01 62.4 °F /  16.9 °C 59.4 °F /  15.2 °C 30.2in /  1021.3hPa Calm     90% 0in /  0.0mm 0 W/m2
02:06 62.4 °F /  16.9 °C 59.7 °F /  15.4 °C 30.2in /  1021.3hPa Calm     91% 0in /  0.0mm 0 W/m2
02:11 62.4 °F /  16.9 °C 59.7 °F /  15.4 °C 30.2in /  1021.3hPa Calm     91% 0in /  0.0mm 0 W/m2
02:16 62.2 °F /  16.8 °C 59.5 °F /  15.3 °C 30.2in /  1021.3hPa Calm     91% 0in /  0.0mm 0 W/m2
02:21 62.2 °F /  16.8 °C 59.5 °F /  15.3 °C 30.2in /  1021.0hPa Calm     91% 0in /  0.0mm 0 W/m2
02:26 62.2 °F /  16.8 °C 59.5 °F /  15.3 °C 30.2in /  1021.0hPa Calm     91% 0in /  0.0mm 0 W/m2
02:31 62.1 °F /  16.7 °C 59.4 °F /  15.2 °C 30.2in /  1021.0hPa Calm     91% 0in /  0.0mm 0 W/m2
02:36 61.9 °F /  16.6 °C 59.2 °F /  15.1 °C 30.2in /  1021.0hPa Calm     91% 0in /  0.0mm 0 W/m2
02:41 61.9 °F /  16.6 °C 59.2 °F /  15.1 °C 30.2in /  1021.0hPa Calm     91% 0in /  0.0mm 0 W/m2
02:46 61.7 °F /  16.5 °C 59 °F /  15 °C 30.2in /  1021.0hPa Calm     91% 0in /  0.0mm 0 W/m2
02:51 61.5 °F /  16.4 °C 59.2 °F /  15.1 °C 30.2in /  1021.0hPa Calm     92% 0in /  0.0mm 0 W/m2
02:56 61.5 °F /  16.4 °C 59.2 °F /  15.1 °C 30.2in /  1021.0hPa Calm     92% 0in /  0.0mm 0 W/m2
03:01 61.5 °F /  16.4 °C 59.2 °F /  15.1 °C 30.2in /  1021.0hPa Calm     92% 0in /  0.0mm 0 W/m2
03:06 61.3 °F /  16.3 °C 59 °F /  15 °C 30.2in /  1021.0hPa Calm     92% 0in /  0.0mm 0 W/m2
03:11 61.3 °F /  16.3 °C 59 °F /  15 °C 30.2in /  1021.0hPa Calm     92% 0in /  0.0mm 0 W/m2
03:16 61.3 °F /  16.3 °C 59 °F /  15 °C 30.2in /  1021.0hPa Calm     92% 0in /  0.0mm 0 W/m2
03:21 61.2 °F /  16.2 °C 58.8 °F /  14.9 °C 30.2in /  1021.0hPa Calm     92% 0in /  0.0mm 0 W/m2
03:26 61.2 °F /  16.2 °C 58.8 °F /  14.9 °C 30.1in /  1020.7hPa Calm     92% 0in /  0.0mm 0 W/m2
03:31 61 °F /  16.1 °C 58.6 °F /  14.8 °C 30.1in /  1020.7hPa Calm     92% 0in /  0.0mm 0 W/m2
03:36 61 °F /  16.1 °C 58.6 °F /  14.8 °C 30.1in /  1020.7hPa Calm     92% 0in /  0.0mm 0 W/m2
03:41 60.8 °F /  16 °C 58.8 °F /  14.9 °C 30.1in /  1020.7hPa Calm     93% 0in /  0.0mm 0 W/m2
03:46 60.6 °F /  15.9 °C 58.6 °F /  14.8 °C 30.1in /  1020.7hPa Calm     93% 0in /  0.0mm 0 W/m2
03:51 60.6 °F /  15.9 °C 58.6 °F /  14.8 °C 30.1in /  1020.7hPa Calm     93% 0in /  0.0mm 0 W/m2
03:56 60.6 °F /  15.9 °C 58.6 °F /  14.8 °C 30.1in /  1020.7hPa Calm     93% 0in /  0.0mm 0 W/m2
04:01 60.4 °F /  15.8 °C 58.5 °F /  14.7 °C 30.1in /  1020.7hPa Calm     93% 0in /  0.0mm 0 W/m2
04:06 60.4 °F /  15.8 °C 58.5 °F /  14.7 °C 30.1in /  1020.7hPa Calm     93% 0in /  0.0mm 0 W/m2
04:11 60.3 °F /  15.7 °C 58.3 °F /  14.6 °C 30.1in /  1020.7hPa Calm     93% 0in /  0.0mm 0 W/m2
04:16 60.3 °F /  15.7 °C 58.3 °F /  14.6 °C 30.1in /  1020.7hPa Calm     93% 0in /  0.0mm 0 W/m2
04:21 60.3 °F /  15.7 °C 58.3 °F /  14.6 °C 30.1in /  1020.7hPa Calm     93% 0in /  0.0mm 0 W/m2
04:26 60.1 °F /  15.6 °C 58.1 °F /  14.5 °C 30.1in /  1020.7hPa Calm     93% 0in /  0.0mm 0 W/m2
04:31 60.1 °F /  15.6 °C 58.1 °F /  14.5 °C 30.1in /  1020.7hPa Calm     93% 0in /  0.0mm 0 W/m2
04:36 59.9 °F /  15.5 °C 57.9 °F /  14.4 °C 30.1in /  1020.7hPa Calm     93% 0in /  0.0mm 0 W/m2
04:41 59.7 °F /  15.4 °C 57.7 °F /  14.3 °C 30.1in /  1020.7hPa Calm     93% 0in /  0.0mm 0 W/m2
04:46 59.7 °F /  15.4 °C 57.9 °F /  14.4 °C 30.1in /  1020.7hPa Calm     94% 0in /  0.0mm 0 W/m2
04:51 59.5 °F /  15.3 °C 57.7 °F /  14.3 °C 30.1in /  1020.7hPa Calm     94% 0in /  0.0mm 0 W/m2
04:56 59.5 °F /  15.3 °C 57.7 °F /  14.3 °C 30.1in /  1020.7hPa Calm     94% 0in /  0.0mm 0 W/m2
05:01 59.5 °F /  15.3 °C 57.7 °F /  14.3 °C 30.1in /  1020.7hPa Calm     94% 0in /  0.0mm 0 W/m2
05:06 59.5 °F /  15.3 °C 57.7 °F /  14.3 °C 30.1in /  1020.7hPa Calm     94% 0in /  0.0mm 0 W/m2
05:11 59.5 °F /  15.3 °C 57.7 °F /  14.3 °C 30.1in /  1020.7hPa Calm     94% 0in /  0.0mm 0 W/m2
05:16 59.5 °F /  15.3 °C 57.7 °F /  14.3 °C 30.1in /  1020.7hPa Calm     94% 0in /  0.0mm 0 W/m2
05:21 59.5 °F /  15.3 °C 57.7 °F /  14.3 °C 30.1in /  1020.7hPa Calm     94% 0in /  0.0mm 0 W/m2
05:26 59.4 °F /  15.2 °C 57.6 °F /  14.2 °C 30.1in /  1020.7hPa Calm     94% 0in /  0.0mm 0 W/m2
05:31 59.4 °F /  15.2 °C 57.6 °F /  14.2 °C 30.1in /  1020.7hPa Calm     94% 0in /  0.0mm 0 W/m2
05:36 59.4 °F /  15.2 °C 57.6 °F /  14.2 °C 30.1in /  1020.7hPa Calm     94% 0in /  0.0mm 0 W/m2
05:41 59.4 °F /  15.2 °C 57.6 °F /  14.2 °C 30.1in /  1020.3hPa Calm     94% 0in /  0.0mm 0 W/m2
05:46 59.2 °F /  15.1 °C 57.4 °F /  14.1 °C 30.1in /  1020.3hPa Calm     94% 0in /  0.0mm 0 W/m2
05:51 59.2 °F /  15.1 °C 57.4 °F /  14.1 °C 30.1in /  1020.3hPa Calm     94% 0in /  0.0mm 0 W/m2
05:56 59.2 °F /  15.1 °C 57.7 °F /  14.3 °C 30.1in /  1020.3hPa Calm     95% 0in /  0.0mm 0 W/m2
06:01 59 °F /  15 °C 57.6 °F /  14.2 °C 30.1in /  1020.3hPa Calm     95% 0in /  0.0mm 0 W/m2
06:06 59 °F /  15 °C 57.6 °F /  14.2 °C 30.1in /  1020.3hPa Calm     95% 0in /  0.0mm 0 W/m2
06:11 59 °F /  15 °C 57.6 °F /  14.2 °C 30.1in /  1020.3hPa Calm     95% 0in /  0.0mm 0 W/m2
06:16 58.8 °F /  14.9 °C 57.4 °F /  14.1 °C 30.1in /  1020.3hPa Calm     95% 0in /  0.0mm 0 W/m2
06:21 58.8 °F /  14.9 °C 57.4 °F /  14.1 °C 30.1in /  1020.3hPa Calm     95% 0in /  0.0mm 0 W/m2
06:26 58.8 °F /  14.9 °C 57.4 °F /  14.1 °C 30.1in /  1020.3hPa Calm     95% 0in /  0.0mm 0 W/m2
06:31 58.8 °F /  14.9 °C 57.4 °F /  14.1 °C 30.1in /  1020.3hPa Calm     95% 0in /  0.0mm 5 W/m2
06:36 58.8 °F /  14.9 °C 57.4 °F /  14.1 °C 30.1in /  1020.3hPa Calm     95% 0in /  0.0mm 7 W/m2
06:41 59 °F /  15 °C 57.6 °F /  14.2 °C 30.1in /  1020.3hPa Calm     95% 0in /  0.0mm 9 W/m2
06:46 59.2 °F /  15.1 °C 57.7 °F /  14.3 °C 30.1in /  1020.3hPa Calm     95% 0in /  0.0mm 12 W/m2
06:51 59.2 °F /  15.1 °C 57.7 °F /  14.3 °C 30.1in /  1020.3hPa Calm     95% 0in /  0.0mm 14 W/m2
06:56 59.4 °F /  15.2 °C 57.9 °F /  14.4 °C 30.1in /  1020.3hPa Calm     95% 0in /  0.0mm 16 W/m2
07:01 59.4 °F /  15.2 °C 57.9 °F /  14.4 °C 30.1in /  1020.3hPa Calm     95% 0in /  0.0mm 18 W/m2
07:06 59.4 °F /  15.2 °C 57.9 °F /  14.4 °C 30.1in /  1020.3hPa Calm     95% 0in /  0.0mm 19 W/m2
07:11 59.4 °F /  15.2 °C 57.9 °F /  14.4 °C 30.1in /  1020.3hPa Calm     95% 0in /  0.0mm 21 W/m2
07:16 59.5 °F /  15.3 °C 58.1 °F /  14.5 °C 30.1in /  1020.3hPa Calm     95% 0in /  0.0mm 23 W/m2
07:21 59.5 °F /  15.3 °C 58.1 °F /  14.5 °C 30.1in /  1020.3hPa Calm     95% 0in /  0.0mm 25 W/m2
07:26 59.5 °F /  15.3 °C 58.1 °F /  14.5 °C 30.1in /  1020.3hPa Calm     95% 0in /  0.0mm 26 W/m2
07:31 59.7 °F /  15.4 °C 58.6 °F /  14.8 °C 30.1in /  1020.3hPa Calm     96% 0in /  0.0mm 26 W/m2
07:36 59.7 °F /  15.4 °C 58.6 °F /  14.8 °C 30.1in /  1020.3hPa Calm     96% 0in /  0.0mm 28 W/m2
07:41 60.1 °F /  15.6 °C 59 °F /  15 °C 30.1in /  1020.3hPa Calm     96% 0in /  0.0mm 30 W/m2
07:47 60.1 °F /  15.6 °C 59 °F /  15 °C 30.1in /  1020.3hPa Calm     96% 0in /  0.0mm 30 W/m2
07:52 60.3 °F /  15.7 °C 59.2 °F /  15.1 °C 30.1in /  1020.3hPa Calm     96% 0in /  0.0mm 33 W/m2
07:57 60.4 °F /  15.8 °C 59.4 °F /  15.2 °C 30.1in /  1020.3hPa Calm     96% 0in /  0.0mm 35 W/m2
08:02 60.8 °F /  16 °C 59.7 °F /  15.4 °C 30.1in /  1020.3hPa Calm     96% 0in /  0.0mm 35 W/m2
08:07 61.2 °F /  16.2 °C 60.1 °F /  15.6 °C 30.1in /  1020.3hPa Calm     96% 0in /  0.0mm 37 W/m2
08:12 61.5 °F /  16.4 °C 60.4 °F /  15.8 °C 30.1in /  1020.3hPa Calm     96% 0in /  0.0mm 39 W/m2
08:17 62.1 °F /  16.7 °C 61 °F /  16.1 °C 30.1in /  1020.7hPa Calm     96% 0in /  0.0mm 40 W/m2
08:22 62.6 °F /  17 °C 61.2 °F /  16.2 °C 30.1in /  1020.7hPa Calm     95% 0in /  0.0mm 40 W/m2
08:27 63.5 °F /  17.5 °C 61.7 °F /  16.5 °C 30.1in /  1020.7hPa Calm     94% 0in /  0.0mm 42 W/m2
08:32 64.6 °F /  18.1 °C 62.4 °F /  16.9 °C 30.1in /  1020.7hPa Calm     93% 0in /  0.0mm 42 W/m2
08:37 65.5 °F /  18.6 °C 62.4 °F /  16.9 °C 30.1in /  1020.7hPa Calm     90% 0in /  0.0mm 62 W/m2
08:42 65.8 °F /  18.8 °C 62.2 °F /  16.8 °C 30.1in /  1020.7hPa Calm     88% 0in /  0.0mm 167 W/m2
08:47 66.6 °F /  19.2 °C 62.2 °F /  16.8 °C 30.1in /  1020.3hPa Calm     86% 0in /  0.0mm 250 W/m2
08:52 67.3 °F /  19.6 °C 62.6 °F /  17 °C 30.1in /  1020.3hPa Calm     85% 0in /  0.0mm 278 W/m2
08:57 67.6 °F /  19.8 °C 62.6 °F /  17 °C 30.1in /  1020.7hPa NE 0.9mph /  1.4km/h 1mph /  1.6km/h 84% 0in /  0.0mm 288 W/m2
09:02 67.6 °F /  19.8 °C 62.2 °F /  16.8 °C 30.1in /  1020.7hPa NE 2mph /  3.2km/h 2mph /  3.2km/h 83% 0in /  0.0mm 306 W/m2
09:07 67.5 °F /  19.7 °C 62.1 °F /  16.7 °C 30.1in /  1020.3hPa ENE 0.9mph /  1.4km/h 2mph /  3.2km/h 83% 0in /  0.0mm 318 W/m2
09:12 67.6 °F /  19.8 °C 62.2 °F /  16.8 °C 30.1in /  1020.7hPa NE 2mph /  3.2km/h 3mph /  4.8km/h 83% 0in /  0.0mm 332 W/m2
09:17 67.6 °F /  19.8 °C 61.9 °F /  16.6 °C 30.1in /  1020.3hPa ESE 0.9mph /  1.4km/h 2mph /  3.2km/h 82% 0in /  0.0mm 350 W/m2
09:22 67.6 °F /  19.8 °C 61.9 °F /  16.6 °C 30.1in /  1020.3hPa NE 2mph /  3.2km/h 3mph /  4.8km/h 82% 0in /  0.0mm 364 W/m2
09:27 67.6 °F /  19.8 °C 62.6 °F /  17 °C 30.1in /  1020.7hPa East 0.9mph /  1.4km/h 2mph /  3.2km/h 84% 0in /  0.0mm 378 W/m2
09:32 68 °F /  20 °C 62.6 °F /  17 °C 30.1in /  1020.7hPa Calm   1mph /  1.6km/h 83% 0in /  0.0mm 396 W/m2
09:37 68.4 °F /  20.2 °C 62.6 °F /  17 °C 30.1in /  1020.3hPa East 0.9mph /  1.4km/h 2mph /  3.2km/h 82% 0in /  0.0mm 62 W/m2
09:42 68.9 °F /  20.5 °C 63.1 °F /  17.3 °C 30.1in /  1020.3hPa ENE 0.9mph /  1.4km/h 2mph /  3.2km/h 82% 0in /  0.0mm 79 W/m2
09:47 69.4 °F /  20.8 °C 63 °F /  17.2 °C 30.1in /  1020.3hPa ENE 2mph /  3.2km/h 3mph /  4.8km/h 80% 0in /  0.0mm 431 W/m2
09:52 69.8 °F /  21 °C 63 °F /  17.2 °C 30.1in /  1020.3hPa East 2.9mph /  4.7km/h 3mph /  4.8km/h 79% 0in /  0.0mm 448 W/m2
09:57 70.3 °F /  21.3 °C 63.1 °F /  17.3 °C 30.1in /  1020.3hPa East 0.9mph /  1.4km/h 2mph /  3.2km/h 78% 0in /  0.0mm 462 W/m2
10:02 70.9 °F /  21.6 °C 63.3 °F /  17.4 °C 30.1in /  1020.3hPa East 0.9mph /  1.4km/h 2mph /  3.2km/h 77% 0in /  0.0mm 476 W/m2
10:07 71.4 °F /  21.9 °C 63.5 °F /  17.5 °C 30.1in /  1020.3hPa East 2mph /  3.2km/h 3mph /  4.8km/h 76% 0in /  0.0mm 490 W/m2
10:12 72 °F /  22.2 °C 63.7 °F /  17.6 °C 30.1in /  1020.3hPa Calm   1mph /  1.6km/h 75% 0in /  0.0mm 503 W/m2
10:17 72.3 °F /  22.4 °C 64.4 °F /  18 °C 30.1in /  1020.3hPa East 0.9mph /  1.4km/h 2mph /  3.2km/h 76% 0in /  0.0mm 517 W/m2
10:22 73 °F /  22.8 °C 64.6 °F /  18.1 °C 30.1in /  1020.3hPa Calm   3mph /  4.8km/h 75% 0in /  0.0mm 527 W/m2
10:27 73.2 °F /  22.9 °C 64.4 °F /  18 °C 30.1in /  1020.3hPa ENE 0.9mph /  1.4km/h 3mph /  4.8km/h 74% 0in /  0.0mm 540 W/m2
10:32 73.8 °F /  23.2 °C 64.6 °F /  18.1 °C 30.1in /  1020.3hPa East 0.9mph /  1.4km/h 2mph /  3.2km/h 73% 0in /  0.0mm 550 W/m2
10:37 74.3 °F /  23.5 °C 64.8 °F /  18.2 °C 30.1in /  1020.3hPa Calm   2mph /  3.2km/h 72% 0in /  0.0mm 559 W/m2
10:42 74.8 °F /  23.8 °C 65.7 °F /  18.7 °C 30.1in /  1020.3hPa Calm   1mph /  1.6km/h 73% 0in /  0.0mm 571 W/m2
10:47 75 °F /  23.9 °C 64.6 °F /  18.1 °C 30.1in /  1020.3hPa NNE 0.9mph /  1.4km/h 2mph /  3.2km/h 70% 0in /  0.0mm 584 W/m2
10:52 75.2 °F /  24 °C 64.8 °F /  18.2 °C 30.1in /  1020.3hPa ENE 2mph /  3.2km/h 2mph /  3.2km/h 70% 0in /  0.0mm 594 W/m2
10:57 75.4 °F /  24.1 °C 64.6 °F /  18.1 °C 30.1in /  1020.3hPa NE 2mph /  3.2km/h 4mph /  6.4km/h 69% 0in /  0.0mm 605 W/m2
11:02 75.6 °F /  24.2 °C 64.8 °F /  18.2 °C 30.1in /  1020.3hPa Calm   2mph /  3.2km/h 69% 0in /  0.0mm 621 W/m2
11:07 75.9 °F /  24.4 °C 64.6 °F /  18.1 °C 30.1in /  1020.3hPa East 2mph /  3.2km/h 3mph /  4.8km/h 68% 0in /  0.0mm 585 W/m2
11:12 76.6 °F /  24.8 °C 65.3 °F /  18.5 °C 30.1in /  1020.3hPa NE 0.9mph /  1.4km/h 3mph /  4.8km/h 68% 0in /  0.0mm 605 W/m2
11:17 77.2 °F /  25.1 °C 64.9 °F /  18.3 °C 30.1in /  1020.0hPa SE 2mph /  3.2km/h 4mph /  6.4km/h 66% 0in /  0.0mm 643 W/m2
11:22 77.5 °F /  25.3 °C 65.7 °F /  18.7 °C 30.1in /  1020.0hPa East 2mph /  3.2km/h 4mph /  6.4km/h 67% 0in /  0.0mm 654 W/m2
11:27 78.1 °F /  25.6 °C 65.3 °F /  18.5 °C 30.1in /  1020.0hPa NNE 0.9mph /  1.4km/h 2mph /  3.2km/h 65% 0in /  0.0mm 664 W/m2
11:32 78.4 °F /  25.8 °C 65.7 °F /  18.7 °C 30.1in /  1020.0hPa NNE 0.9mph /  1.4km/h 4mph /  6.4km/h 65% 0in /  0.0mm 671 W/m2
11:37 78.6 °F /  25.9 °C 65.5 °F /  18.6 °C 30.1in /  1020.0hPa East 0.9mph /  1.4km/h 3mph /  4.8km/h 64% 0in /  0.0mm 682 W/m2
11:42 79 °F /  26.1 °C 65.3 °F /  18.5 °C 30.1in /  1020.0hPa WNW 2mph /  3.2km/h 3mph /  4.8km/h 63% 0in /  0.0mm 694 W/m2
11:47 79 °F /  26.1 °C 66.6 °F /  19.2 °C 30.1in /  1020.0hPa Calm   2mph /  3.2km/h 66% 0in /  0.0mm 703 W/m2
11:52 79.2 °F /  26.2 °C 66.7 °F /  19.3 °C 30.1in /  1020.0hPa WSW 2.9mph /  4.7km/h 3mph /  4.8km/h 66% 0in /  0.0mm 715 W/m2
11:57 79.2 °F /  26.2 °C 65.5 °F /  18.6 °C 30.1in /  1019.6hPa NNE 4mph /  6.4km/h 4mph /  6.4km/h 63% 0in /  0.0mm 722 W/m2
12:02 79.2 °F /  26.2 °C 65.8 °F /  18.8 °C 30.1in /  1019.6hPa ESE 0.9mph /  1.4km/h 4mph /  6.4km/h 64% 0in /  0.0mm 731 W/m2
12:07 79.3 °F /  26.3 °C 66 °F /  18.9 °C 30.1in /  1019.6hPa West 0.9mph /  1.4km/h 3mph /  4.8km/h 64% 0in /  0.0mm 731 W/m2
12:12 79.3 °F /  26.3 °C 66 °F /  18.9 °C 30.1in /  1019.6hPa NNE 2mph /  3.2km/h 4mph /  6.4km/h 64% 0in /  0.0mm 758 W/m2
12:17 79.3 °F /  26.3 °C 66 °F /  18.9 °C 30.1in /  1019.6hPa ENE 2mph /  3.2km/h 2mph /  3.2km/h 64% 0in /  0.0mm 791 W/m2
12:22 79.9 °F /  26.6 °C 66.2 °F /  19 °C 30.1in /  1019.6hPa NW 2mph /  3.2km/h 3mph /  4.8km/h 63% 0in /  0.0mm 844 W/m2
12:27 80.1 °F /  26.7 °C 66.4 °F /  19.1 °C 30.1in /  1019.6hPa ENE 2mph /  3.2km/h 5mph /  8km/h 63% 0in /  0.0mm 802 W/m2
12:32 80.6 °F /  27 °C 66.9 °F /  19.4 °C 30.1in /  1019.3hPa SE 0.9mph /  1.4km/h 4mph /  6.4km/h 63% 0in /  0.0mm 798 W/m2
12:37 81.3 °F /  27.4 °C 66.6 °F /  19.2 °C 30.1in /  1019.6hPa NW 0.9mph /  1.4km/h 3mph /  4.8km/h 61% 0in /  0.0mm 846 W/m2
12:42 81.9 °F /  27.7 °C 67.6 °F /  19.8 °C 30.1in /  1019.3hPa North 0.9mph /  1.4km/h 1mph /  1.6km/h 62% 0in /  0.0mm 879 W/m2
12:47 82 °F /  27.8 °C 66.7 °F /  19.3 °C 30.1in /  1019.3hPa ENE 2.9mph /  4.7km/h 4mph /  6.4km/h 60% 0in /  0.0mm 826 W/m2
12:52 82 °F /  27.8 °C 66.7 °F /  19.3 °C 30.1in /  1019.3hPa NE 0.9mph /  1.4km/h 6mph /  9.7km/h 60% 0in /  0.0mm 823 W/m2
12:57 82 °F /  27.8 °C 66.7 °F /  19.3 °C 30.1in /  1019.3hPa ENE 2mph /  3.2km/h 4mph /  6.4km/h 60% 0in /  0.0mm 877 W/m2
13:02 82 °F /  27.8 °C 66.7 °F /  19.3 °C 30.1in /  1019.3hPa Calm   3mph /  4.8km/h 60% 0in /  0.0mm 860 W/m2
13:07 82.4 °F /  28 °C 67.1 °F /  19.5 °C 30.1in /  1019.0hPa ENE 0.9mph /  1.4km/h 2mph /  3.2km/h 60% 0in /  0.0mm 930 W/m2
13:12 82.4 °F /  28 °C 66.6 °F /  19.2 °C 30.1in /  1019.0hPa WNW 0.9mph /  1.4km/h 4mph /  6.4km/h 59% 0in /  0.0mm 886 W/m2
13:17 82.4 °F /  28 °C 67.1 °F /  19.5 °C 30.1in /  1019.0hPa WSW 4mph /  6.4km/h 9mph /  14.5km/h 60% 0in /  0.0mm 893 W/m2
13:22 82.4 °F /  28 °C 66.2 °F /  19 °C 30.1in /  1019.0hPa NNW 0.9mph /  1.4km/h 4mph /  6.4km/h 58% 0in /  0.0mm 914 W/m2
13:27 82.6 °F /  28.1 °C 65.8 °F /  18.8 °C 30.1in /  1019.0hPa WSW 4.9mph /  7.9km/h 7mph /  11.3km/h 57% 0in /  0.0mm 909 W/m2
13:32 82.8 °F /  28.2 °C 66 °F /  18.9 °C 30.1in /  1019.0hPa NNW 0.9mph /  1.4km/h 4mph /  6.4km/h 57% 0in /  0.0mm 930 W/m2
13:37 83.1 °F /  28.4 °C 66.7 °F /  19.3 °C 30.1in /  1019.0hPa WSW 2mph /  3.2km/h 3mph /  4.8km/h 58% 0in /  0.0mm 918 W/m2
13:42 83.1 °F /  28.4 °C 66.4 °F /  19.1 °C 30.1in /  1019.0hPa WNW 6mph /  9.7km/h 8mph /  12.9km/h 57% 0in /  0.0mm 911 W/m2
13:47 83.1 °F /  28.4 °C 65.8 °F /  18.8 °C 30.1in /  1019.0hPa NNW 0.9mph /  1.4km/h 4mph /  6.4km/h 56% 0in /  0.0mm 889 W/m2
13:52 83.1 °F /  28.4 °C 66.4 °F /  19.1 °C 30.1in /  1019.0hPa NW 4mph /  6.4km/h 5mph /  8km/h 57% 0in /  0.0mm 879 W/m2
13:57 83.3 °F /  28.5 °C 66.6 °F /  19.2 °C 30.1in /  1019.0hPa West 2.9mph /  4.7km/h 8mph /  12.9km/h 57% 0in /  0.0mm 816 W/m2
14:02 82.8 °F /  28.2 °C 66 °F /  18.9 °C 30.1in /  1019.0hPa WNW 2mph /  3.2km/h 7mph /  11.3km/h 57% 0in /  0.0mm 209 W/m2
14:07 82.2 °F /  27.9 °C 66.4 °F /  19.1 °C 30.1in /  1018.6hPa NW 2mph /  3.2km/h 7mph /  11.3km/h 59% 0in /  0.0mm 840 W/m2
14:12 81.9 °F /  27.7 °C 67.1 °F /  19.5 °C 30.1in /  1018.6hPa WSW 4mph /  6.4km/h 4mph /  6.4km/h 61% 0in /  0.0mm 856 W/m2
14:17 82 °F /  27.8 °C 65.8 °F /  18.8 °C 30.1in /  1018.6hPa NW 2.9mph /  4.7km/h 7mph /  11.3km/h 58% 0in /  0.0mm 846 W/m2
14:22 82.8 °F /  28.2 °C 66.9 °F /  19.4 °C 30.1in /  1018.6hPa NNE 0.9mph /  1.4km/h 2mph /  3.2km/h 59% 0in /  0.0mm 860 W/m2
14:27 83.5 °F /  28.6 °C 66.6 °F /  19.2 °C 30.1in /  1018.6hPa West 2.9mph /  4.7km/h 4mph /  6.4km/h 57% 0in /  0.0mm 870 W/m2
14:32 83.5 °F /  28.6 °C 66.2 °F /  19 °C 30.1in /  1018.6hPa WNW 6.9mph /  11.1km/h 7mph /  11.3km/h 56% 0in /  0.0mm 895 W/m2
14:37 82.9 °F /  28.3 °C 66.2 °F /  19 °C 30.1in /  1018.6hPa WNW 2.9mph /  4.7km/h 6mph /  9.7km/h 57% 0in /  0.0mm 178 W/m2
14:42 82.6 °F /  28.1 °C 66.7 °F /  19.3 °C 30.1in /  1018.6hPa West 0.9mph /  1.4km/h 4mph /  6.4km/h 59% 0in /  0.0mm 290 W/m2
14:47 82.2 °F /  27.9 °C 64.9 °F /  18.3 °C 30.1in /  1018.6hPa NW 0.9mph /  1.4km/h 4mph /  6.4km/h 56% 0in /  0.0mm 176 W/m2
14:52 82.2 °F /  27.9 °C 66.4 °F /  19.1 °C 30.1in /  1018.6hPa West 6mph /  9.7km/h 6mph /  9.7km/h 59% 0in /  0.0mm 888 W/m2
14:57 82.6 °F /  28.1 °C 66.4 °F /  19.1 °C 30.1in /  1018.3hPa NW 2.9mph /  4.7km/h 8mph /  12.9km/h 58% 0in /  0.0mm 838 W/m2
15:02 82.9 °F /  28.3 °C 67.6 °F /  19.8 °C 30.1in /  1018.3hPa West 8.9mph /  14.3km/h 10mph /  16.1km/h 60% 0in /  0.0mm 824 W/m2
15:07 83.5 °F /  28.6 °C 65.7 °F /  18.7 °C 30.1in /  1018.3hPa WNW 4mph /  6.4km/h 7mph /  11.3km/h 55% 0in /  0.0mm 816 W/m2
15:12 83.7 °F /  28.7 °C 65.8 °F /  18.8 °C 30.1in /  1018.3hPa West 2.9mph /  4.7km/h 4mph /  6.4km/h 55% 0in /  0.0mm 831 W/m2
15:17 83.8 °F /  28.8 °C 66 °F /  18.9 °C 30.1in /  1018.3hPa SW 4mph /  6.4km/h 7mph /  11.3km/h 55% 0in /  0.0mm 826 W/m2
15:22 84.2 °F /  29 °C 66.7 °F /  19.3 °C 30.1in /  1018.3hPa Calm   4mph /  6.4km/h 56% 0in /  0.0mm 824 W/m2
15:27 84.6 °F /  29.2 °C 66.6 °F /  19.2 °C 30.1in /  1018.3hPa West 6mph /  9.7km/h 9mph /  14.5km/h 55% 0in /  0.0mm 817 W/m2
15:32 84.6 °F /  29.2 °C 65.5 °F /  18.6 °C 30.1in /  1018.0hPa WNW 4mph /  6.4km/h 5mph /  8km/h 53% 0in /  0.0mm 782 W/m2
15:37 84.6 °F /  29.2 °C 66.6 °F /  19.2 °C 30.1in /  1018.0hPa WNW 4mph /  6.4km/h 7mph /  11.3km/h 55% 0in /  0.0mm 777 W/m2
15:42 84.7 °F /  29.3 °C 66.2 °F /  19 °C 30.1in /  1018.0hPa NNW 2mph /  3.2km/h 4mph /  6.4km/h 54% 0in /  0.0mm 765 W/m2
15:47 84.7 °F /  29.3 °C 66.2 °F /  19 °C 30.1in /  1018.0hPa NW 4mph /  6.4km/h 5mph /  8km/h 54% 0in /  0.0mm 772 W/m2
15:52 84.9 °F /  29.4 °C 65.8 °F /  18.8 °C 30.1in /  1018.0hPa West 2mph /  3.2km/h 2mph /  3.2km/h 53% 0in /  0.0mm 817 W/m2
15:57 85.3 °F /  29.6 °C 66.7 °F /  19.3 °C 30.1in /  1018.0hPa NW 0.9mph /  1.4km/h 6mph /  9.7km/h 54% 0in /  0.0mm 763 W/m2
16:02 85.6 °F /  29.8 °C 67.6 °F /  19.8 °C 30.1in /  1018.0hPa WNW 2.9mph /  4.7km/h 5mph /  8km/h 55% 0in /  0.0mm 747 W/m2
16:07 85.6 °F /  29.8 °C 65.5 °F /  18.6 °C 30.1in /  1018.0hPa North 2mph /  3.2km/h 6mph /  9.7km/h 51% 0in /  0.0mm 715 W/m2
16:12 85.6 °F /  29.8 °C 66.6 °F /  19.2 °C 30.1in /  1018.0hPa NW 4mph /  6.4km/h 7mph /  11.3km/h 53% 0in /  0.0mm 710 W/m2
16:17 85.5 °F /  29.7 °C 66.9 °F /  19.4 °C 30.1in /  1018.0hPa WSW 2mph /  3.2km/h 7mph /  11.3km/h 54% 0in /  0.0mm 691 W/m2
16:22 85.3 °F /  29.6 °C 66.2 °F /  19 °C 30.1in /  1018.0hPa NW 0.9mph /  1.4km/h 5mph /  8km/h 53% 0in /  0.0mm 691 W/m2
16:27 85.3 °F /  29.6 °C 66.7 °F /  19.3 °C 30.1in /  1018.0hPa NNW 2.9mph /  4.7km/h 11mph /  17.7km/h 54% 0in /  0.0mm 666 W/m2
16:32 84.9 °F /  29.4 °C 66.9 °F /  19.4 °C 30.1in /  1018.0hPa West 4mph /  6.4km/h 6mph /  9.7km/h 55% 0in /  0.0mm 645 W/m2
16:37 84.7 °F /  29.3 °C 66.2 °F /  19 °C 30.1in /  1018.0hPa West 6mph /  9.7km/h 7mph /  11.3km/h 54% 0in /  0.0mm 654 W/m2
16:42 84.4 °F /  29.1 °C 65.8 °F /  18.8 °C 30.1in /  1018.0hPa West 6.9mph /  11.1km/h 10mph /  16.1km/h 54% 0in /  0.0mm 682 W/m2
16:47 84.4 °F /  29.1 °C 66.4 °F /  19.1 °C 30.1in /  1018.0hPa West 4mph /  6.4km/h 4mph /  6.4km/h 55% 0in /  0.0mm 696 W/m2
16:52 84.7 °F /  29.3 °C 66.2 °F /  19 °C 30.1in /  1018.0hPa WNW 2mph /  3.2km/h 5mph /  8km/h 54% 0in /  0.0mm 659 W/m2
16:57 85.1 °F /  29.5 °C 66 °F /  18.9 °C 30.1in /  1017.6hPa WNW 4mph /  6.4km/h 9mph /  14.5km/h 53% 0in /  0.0mm 601 W/m2
17:02 84.9 °F /  29.4 °C 65.8 °F /  18.8 °C 30.1in /  1017.6hPa WNW 2.9mph /  4.7km/h 10mph /  16.1km/h 53% 0in /  0.0mm 584 W/m2
17:07 84.9 °F /  29.4 °C 65.8 °F /  18.8 °C 30.1in /  1017.6hPa NW 2.9mph /  4.7km/h 9mph /  14.5km/h 53% 0in /  0.0mm 596 W/m2
17:12 84.6 °F /  29.2 °C 66 °F /  18.9 °C 30.1in /  1017.6hPa WNW 2.9mph /  4.7km/h 7mph /  11.3km/h 54% 0in /  0.0mm 563 W/m2
17:17 84.7 °F /  29.3 °C 66.7 °F /  19.3 °C 30.1in /  1017.6hPa West 4mph /  6.4km/h 9mph /  14.5km/h 55% 0in /  0.0mm 552 W/m2
17:22 84.6 °F /  29.2 °C 66 °F /  18.9 °C 30.1in /  1017.6hPa North 2.9mph /  4.7km/h 10mph /  16.1km/h 54% 0in /  0.0mm 547 W/m2
17:27 84.6 °F /  29.2 °C 66 °F /  18.9 °C 30.1in /  1017.6hPa West 2.9mph /  4.7km/h 7mph /  11.3km/h 54% 0in /  0.0mm 526 W/m2
17:32 84.6 °F /  29.2 °C 67.1 °F /  19.5 °C 30in /  1017.3hPa SW 4.9mph /  7.9km/h 6mph /  9.7km/h 56% 0in /  0.0mm 522 W/m2
17:37 84.4 °F /  29.1 °C 65.8 °F /  18.8 °C 30.1in /  1017.6hPa NW 2mph /  3.2km/h 9mph /  14.5km/h 54% 0in /  0.0mm 485 W/m2
17:42 84.4 °F /  29.1 °C 66.9 °F /  19.4 °C 30.1in /  1017.6hPa WNW 2mph /  3.2km/h 7mph /  11.3km/h 56% 0in /  0.0mm 464 W/m2
17:47 84.4 °F /  29.1 °C 65.8 °F /  18.8 °C 30in /  1017.3hPa NW 2mph /  3.2km/h 8mph /  12.9km/h 54% 0in /  0.0mm 466 W/m2
17:52 84.7 °F /  29.3 °C 66.2 °F /  19 °C 30in /  1017.3hPa WNW 4mph /  6.4km/h 7mph /  11.3km/h 54% 0in /  0.0mm 454 W/m2
17:57 84.6 °F /  29.2 °C 66 °F /  18.9 °C 30in /  1017.3hPa WNW 2.9mph /  4.7km/h 7mph /  11.3km/h 54% 0in /  0.0mm 436 W/m2
18:02 84.4 °F /  29.1 °C 65.8 °F /  18.8 °C 30in /  1017.3hPa West 2mph /  3.2km/h 2mph /  3.2km/h 54% 0in /  0.0mm 420 W/m2
18:07 84.6 °F /  29.2 °C 65.5 °F /  18.6 °C 30in /  1017.3hPa NNW 2.9mph /  4.7km/h 4mph /  6.4km/h 53% 0in /  0.0mm 403 W/m2
18:12 84.7 °F /  29.3 °C 65.7 °F /  18.7 °C 30in /  1017.3hPa West 6mph /  9.7km/h 6mph /  9.7km/h 53% 0in /  0.0mm 385 W/m2
18:17 84.7 °F /  29.3 °C 66.7 °F /  19.3 °C 30in /  1017.3hPa West 2.9mph /  4.7km/h 5mph /  8km/h 55% 0in /  0.0mm 371 W/m2
18:22 84.6 °F /  29.2 °C 66 °F /  18.9 °C 30in /  1017.3hPa West 2.9mph /  4.7km/h 7mph /  11.3km/h 54% 0in /  0.0mm 357 W/m2
18:27 84.4 °F /  29.1 °C 66.4 °F /  19.1 °C 30in /  1017.3hPa West 2.9mph /  4.7km/h 8mph /  12.9km/h 55% 0in /  0.0mm 346 W/m2
18:32 84.2 °F /  29 °C 65.7 °F /  18.7 °C 30in /  1016.9hPa WNW 4mph /  6.4km/h 4mph /  6.4km/h 54% 0in /  0.0mm 334 W/m2
18:37 84 °F /  28.9 °C 65.7 °F /  18.7 °C 30in /  1017.3hPa West 0.9mph /  1.4km/h 8mph /  12.9km/h 54% 0in /  0.0mm 322 W/m2
18:42 83.8 °F /  28.8 °C 65.5 °F /  18.6 °C 30in /  1016.9hPa NNW 2.9mph /  4.7km/h 7mph /  11.3km/h 54% 0in /  0.0mm 304 W/m2
18:47 83.8 °F /  28.8 °C 66 °F /  18.9 °C 30in /  1016.9hPa West 4mph /  6.4km/h 4mph /  6.4km/h 55% 0in /  0.0mm 288 W/m2
18:52 83.8 °F /  28.8 °C 66 °F /  18.9 °C 30in /  1016.9hPa West 2.9mph /  4.7km/h 7mph /  11.3km/h 55% 0in /  0.0mm 274 W/m2
18:57 83.5 °F /  28.6 °C 66.6 °F /  19.2 °C 30in /  1016.9hPa West 2mph /  3.2km/h 4mph /  6.4km/h 57% 0in /  0.0mm 257 W/m2
19:02 83.3 °F /  28.5 °C 66.6 °F /  19.2 °C 30in /  1016.9hPa WSW 2.9mph /  4.7km/h 7mph /  11.3km/h 57% 0in /  0.0mm 230 W/m2
19:07 82.9 °F /  28.3 °C 66.6 °F /  19.2 °C 30in /  1016.9hPa WSW 4mph /  6.4km/h 6mph /  9.7km/h 58% 0in /  0.0mm 211 W/m2
19:12 82.6 °F /  28.1 °C 66.4 °F /  19.1 °C 30in /  1016.9hPa West 2.9mph /  4.7km/h 5mph /  8km/h 58% 0in /  0.0mm 188 W/m2
19:17 82.2 °F /  27.9 °C 66.4 °F /  19.1 °C 30in /  1016.9hPa West 2mph /  3.2km/h 3mph /  4.8km/h 59% 0in /  0.0mm 171 W/m2
19:22 82 °F /  27.8 °C 65.8 °F /  18.8 °C 30in /  1016.9hPa West 2mph /  3.2km/h 5mph /  8km/h 58% 0in /  0.0mm 155 W/m2
19:27 81.9 °F /  27.7 °C 66.2 °F /  19 °C 30in /  1016.9hPa West 2.9mph /  4.7km/h 5mph /  8km/h 59% 0in /  0.0mm 139 W/m2
19:32 81.7 °F /  27.6 °C 66.4 °F /  19.1 °C 30in /  1016.9hPa West 2mph /  3.2km/h 3mph /  4.8km/h 60% 0in /  0.0mm 121 W/m2
19:37 81.5 °F /  27.5 °C 65.8 °F /  18.8 °C 30in /  1016.9hPa WNW 2mph /  3.2km/h 6mph /  9.7km/h 59% 0in /  0.0mm 114 W/m2
19:42 81.3 °F /  27.4 °C 65.7 °F /  18.7 °C 30in /  1016.9hPa West 2mph /  3.2km/h 5mph /  8km/h 59% 0in /  0.0mm 111 W/m2
19:47 81.1 °F /  27.3 °C 66 °F /  18.9 °C 30in /  1016.9hPa WNW 2.9mph /  4.7km/h 5mph /  8km/h 60% 0in /  0.0mm 109 W/m2
19:52 81 °F /  27.2 °C 65.8 °F /  18.8 °C 30in /  1016.9hPa West 2mph /  3.2km/h 3mph /  4.8km/h 60% 0in /  0.0mm 104 W/m2
19:58 80.8 °F /  27.1 °C 66 °F /  18.9 °C 30in /  1016.9hPa WSW 2mph /  3.2km/h 5mph /  8km/h 61% 0in /  0.0mm 93 W/m2
20:03 80.6 °F /  27 °C 65.5 °F /  18.6 °C 30in /  1016.9hPa West 2mph /  3.2km/h 6mph /  9.7km/h 60% 0in /  0.0mm 81 W/m2
20:08 80.2 °F /  26.8 °C 65.5 °F /  18.6 °C 30in /  1016.9hPa WSW 4.9mph /  7.9km/h 5mph /  8km/h 61% 0in /  0.0mm 67 W/m2
20:13 79.9 °F /  26.6 °C 65.7 °F /  18.7 °C 30in /  1016.9hPa WNW 2mph /  3.2km/h 4mph /  6.4km/h 62% 0in /  0.0mm 42 W/m2
20:18 79.2 °F /  26.2 °C 65.5 °F /  18.6 °C 30in /  1016.6hPa WSW 0.9mph /  1.4km/h 5mph /  8km/h 63% 0in /  0.0mm 25 W/m2
20:23 78.6 °F /  25.9 °C 65.5 °F /  18.6 °C 30in /  1016.9hPa West 0.9mph /  1.4km/h 4mph /  6.4km/h 64% 0in /  0.0mm 21 W/m2
20:28 78.1 °F /  25.6 °C 65.3 °F /  18.5 °C 30in /  1016.6hPa WSW 2mph /  3.2km/h 5mph /  8km/h 65% 0in /  0.0mm 19 W/m2
20:33 77.5 °F /  25.3 °C 65.3 °F /  18.5 °C 30in /  1016.9hPa WSW 2mph /  3.2km/h 3mph /  4.8km/h 66% 0in /  0.0mm 16 W/m2
20:38 77.2 °F /  25.1 °C 64.9 °F /  18.3 °C 30in /  1016.6hPa West 2mph /  3.2km/h 3mph /  4.8km/h 66% 0in /  0.0mm 12 W/m2
20:43 76.8 °F /  24.9 °C 64.9 °F /  18.3 °C 30in /  1016.6hPa West 0.9mph /  1.4km/h 3mph /  4.8km/h 67% 0in /  0.0mm 11 W/m2
20:48 76.5 °F /  24.7 °C 64.8 °F /  18.2 °C 30in /  1016.6hPa WSW 2mph /  3.2km/h 3mph /  4.8km/h 67% 0in /  0.0mm 7 W/m2
20:53 76.1 °F /  24.5 °C 63.9 °F /  17.7 °C 30in /  1016.6hPa WSW 0.9mph /  1.4km/h 4mph /  6.4km/h 66% 0in /  0.0mm 5 W/m2
20:58 75.7 °F /  24.3 °C 64 °F /  17.8 °C 30in /  1016.6hPa WSW 2.9mph /  4.7km/h 3mph /  4.8km/h 67% 0in /  0.0mm 0 W/m2
21:03 75.4 °F /  24.1 °C 63.7 °F /  17.6 °C 30in /  1016.6hPa West 2mph /  3.2km/h 4mph /  6.4km/h 67% 0in /  0.0mm 0 W/m2
21:08 75 °F /  23.9 °C 63 °F /  17.2 °C 30in /  1016.6hPa WNW 2mph /  3.2km/h 3mph /  4.8km/h 66% 0in /  0.0mm 0 W/m2
21:13 74.8 °F /  23.8 °C 62.8 °F /  17.1 °C 30in /  1016.6hPa West 4mph /  6.4km/h 6mph /  9.7km/h 66% 0in /  0.0mm 0 W/m2
21:18 74.7 °F /  23.7 °C 62.6 °F /  17 °C 30in /  1016.6hPa West 2.9mph /  4.7km/h 4mph /  6.4km/h 66% 0in /  0.0mm 0 W/m2
21:23 74.5 °F /  23.6 °C 62.4 °F /  16.9 °C 30in /  1016.6hPa West 2mph /  3.2km/h 3mph /  4.8km/h 66% 0in /  0.0mm 0 W/m2
21:28 74.1 °F /  23.4 °C 61.5 °F /  16.4 °C 30in /  1016.9hPa West 0.9mph /  1.4km/h 3mph /  4.8km/h 65% 0in /  0.0mm 0 W/m2
21:33 73.9 °F /  23.3 °C 61.3 °F /  16.3 °C 30in /  1016.9hPa Calm   2mph /  3.2km/h 65% 0in /  0.0mm 0 W/m2
21:38 73.8 °F /  23.2 °C 61.7 °F /  16.5 °C 30in /  1016.9hPa WSW 0.9mph /  1.4km/h 2mph /  3.2km/h 66% 0in /  0.0mm 0 W/m2
21:43 73.6 °F /  23.1 °C 61.2 °F /  16.2 °C 30in /  1016.9hPa WSW 0.9mph /  1.4km/h 1mph /  1.6km/h 65% 0in /  0.0mm 0 W/m2
21:48 73 °F /  22.8 °C 61.5 °F /  16.4 °C 30in /  1016.9hPa WSW 0.9mph /  1.4km/h 2mph /  3.2km/h 67% 0in /  0.0mm 0 W/m2
21:53 72.7 °F /  22.6 °C 61.5 °F /  16.4 °C 30in /  1016.9hPa Calm   1mph /  1.6km/h 68% 0in /  0.0mm 0 W/m2
21:58 72 °F /  22.2 °C 60.8 °F /  16 °C 30in /  1016.9hPa WSW 0.9mph /  1.4km/h 1mph /  1.6km/h 68% 0in /  0.0mm 0 W/m2
22:03 71.6 °F /  22 °C 60.8 °F /  16 °C 30in /  1016.9hPa Calm   1mph /  1.6km/h 69% 0in /  0.0mm 0 W/m2
22:08 71.2 °F /  21.8 °C 61 °F /  16.1 °C 30in /  1016.9hPa WSW 0.9mph /  1.4km/h 1mph /  1.6km/h 70% 0in /  0.0mm 0 W/m2
22:13 70.7 °F /  21.5 °C 60.8 °F /  16 °C 30in /  1016.9hPa Calm   1mph /  1.6km/h 71% 0in /  0.0mm 0 W/m2
22:18 70.3 °F /  21.3 °C 60.4 °F /  15.8 °C 30in /  1016.9hPa Calm     71% 0in /  0.0mm 0 W/m2
22:23 70.2 °F /  21.2 °C 60.3 °F /  15.7 °C 30in /  1016.9hPa Calm     71% 0in /  0.0mm 0 W/m2
22:28 69.6 °F /  20.9 °C 59.7 °F /  15.4 °C 30in /  1016.9hPa Calm     71% 0in /  0.0mm 0 W/m2
22:33 69.4 °F /  20.8 °C 59.5 °F /  15.3 °C 30in /  1016.9hPa Calm     71% 0in /  0.0mm 0 W/m2
22:38 69.1 °F /  20.6 °C 59.4 °F /  15.2 °C 30in /  1016.9hPa Calm     71% 0in /  0.0mm 0 W/m2
22:43 68.7 °F /  20.4 °C 59 °F /  15 °C 30in /  1016.9hPa Calm     71% 0in /  0.0mm 0 W/m2
22:48 68.5 °F /  20.3 °C 58.3 °F /  14.6 °C 30in /  1016.9hPa Calm     70% 0in /  0.0mm 0 W/m2
22:53 68.2 °F /  20.1 °C 58.1 °F /  14.5 °C 30in /  1016.9hPa Calm     70% 0in /  0.0mm 0 W/m2
22:58 67.8 °F /  19.9 °C 57.2 °F /  14 °C 30in /  1016.9hPa Calm     69% 0in /  0.0mm 0 W/m2
23:03 67.5 °F /  19.7 °C 57.4 °F /  14.1 °C 30in /  1016.9hPa Calm     70% 0in /  0.0mm 0 W/m2
23:08 67.1 °F /  19.5 °C 57 °F /  13.9 °C 30in /  1016.9hPa Calm     70% 0in /  0.0mm 0 W/m2
23:13 66.7 °F /  19.3 °C 56.7 °F /  13.7 °C 30in /  1016.9hPa Calm     70% 0in /  0.0mm 0 W/m2
23:18 66.6 °F /  19.2 °C 56.5 °F /  13.6 °C 30in /  1016.9hPa Calm     70% 0in /  0.0mm 0 W/m2
23:23 66.4 °F /  19.1 °C 56.7 °F /  13.7 °C 30in /  1016.9hPa Calm     71% 0in /  0.0mm 0 W/m2
23:28 66 °F /  18.9 °C 56.7 °F /  13.7 °C 30in /  1016.9hPa Calm     72% 0in /  0.0mm 0 W/m2
23:33 65.8 °F /  18.8 °C 56.5 °F /  13.6 °C 30in /  1016.9hPa Calm   1mph /  1.6km/h 72% 0in /  0.0mm 0 W/m2
23:38 65.8 °F /  18.8 °C 57 °F /  13.9 °C 30in /  1016.9hPa Calm   2mph /  3.2km/h 73% 0in /  0.0mm 0 W/m2
23:43 65.7 °F /  18.7 °C 57.2 °F /  14 °C 30in /  1017.3hPa SW 2mph /  3.2km/h 3mph /  4.8km/h 74% 0in /  0.0mm 0 W/m2
23:48 65.8 °F /  18.8 °C 57.4 °F /  14.1 °C 30in /  1017.3hPa Calm   2mph /  3.2km/h 74% 0in /  0.0mm 0 W/m2
23:53 65.7 °F /  18.7 °C 57.6 °F /  14.2 °C 30in /  1017.3hPa Calm   3mph /  4.8km/h 75% 0in /  0.0mm 0 W/m2
23:58 65.5 °F /  18.6 °C 57.4 °F /  14.1 °C 30in /  1016.9hPa Calm   1mph /  1.6km/h 75% 0in /  0.0mm 0 W/m2
Juneau County Weather
Compliments of Weather Underground - 4 mb